createdAt,value
2019-04-20T00:01:28.111Z,86.33
2019-04-20T00:03:52.066Z,85.26
2019-04-20T00:06:22.098Z,84.63
2019-04-20T00:08:55.730Z,84.62
2019-04-20T00:11:29.511Z,84.59
2019-04-20T00:14:00.138Z,84.27
2019-04-20T00:16:23.072Z,83.93
2019-04-20T00:18:56.626Z,83.82
2019-04-20T00:21:47.330Z,83.13
2019-04-20T00:24:16.988Z,83.98
2019-04-20T00:27:11.730Z,83.44
2019-04-20T00:29:30.977Z,83.12
2019-04-20T00:31:56.558Z,84.17
2019-04-20T00:34:24.107Z,83.91
2019-04-20T00:36:47.334Z,84.19
2019-04-20T00:39:17.173Z,83.92
2019-04-20T00:41:51.431Z,84.00
2019-04-20T00:44:24.245Z,85.37
2019-04-20T00:47:01.011Z,85.92
2019-04-20T00:49:35.072Z,85.41
2019-04-20T00:52:18.817Z,86.72
2019-04-20T00:54:22.250Z,88.20
2019-04-20T00:56:53.266Z,87.91
2019-04-20T00:59:35.383Z,88.31
2019-04-20T01:02:09.082Z,89.16
2019-04-20T01:04:42.054Z,89.39
2019-04-20T01:07:11.665Z,90.44
2019-04-20T01:09:47.836Z,91.53
2019-04-20T01:12:22.564Z,92.32
2019-04-20T01:14:55.179Z,92.23
2019-04-20T01:17:18.280Z,93.06
2019-04-20T01:19:48.817Z,92.40
2019-04-20T01:22:21.894Z,92.15
2019-04-20T01:24:48.714Z,92.27
2019-04-20T01:27:33.916Z,92.12
2019-04-20T01:29:57.873Z,92.35
2019-04-20T01:32:30.119Z,91.41
2019-04-20T01:35:03.809Z,91.62
2019-04-20T01:37:35.432Z,92.29
2019-04-20T01:39:55.109Z,93.05
2019-04-20T01:42:23.405Z,93.49
2019-04-20T01:44:54.948Z,93.79
2019-04-20T01:47:30.602Z,93.80
2019-04-20T01:49:59.850Z,94.04
2019-04-20T01:52:28.609Z,93.44
2019-04-20T01:55:30.521Z,93.24
2019-04-20T01:58:00.416Z,92.53
2019-04-20T02:00:23.260Z,92.51
2019-04-20T02:02:57.067Z,92.02
2019-04-20T02:05:28.964Z,91.44
2019-04-20T02:07:54.183Z,91.82
2019-04-20T02:10:31.959Z,92.54
2019-04-20T02:12:59.370Z,93.21
2019-04-20T02:15:32.990Z,94.65
2019-04-20T02:18:07.906Z,94.80
2019-04-20T02:20:43.924Z,94.55
2019-04-20T02:23:11.312Z,93.44
2019-04-20T02:25:26.976Z,93.93
2019-04-20T02:28:14.670Z,94.63
2019-04-20T02:36:47.870Z,95.71
2019-04-20T02:41:17.784Z,95.81
2019-04-20T02:44:11.710Z,96.37
2019-04-20T02:46:14.798Z,96.68
2019-04-20T02:49:01.395Z,96.94
2019-04-20T02:51:28.812Z,97.27
2019-04-20T02:54:05.790Z,97.77
2019-04-20T02:59:12.622Z,97.53
2019-04-20T03:01:29.411Z,97.86
2019-04-20T03:03:43.234Z,98.02
2019-04-20T03:06:19.508Z,98.54
2019-04-20T03:08:56.415Z,99.33
2019-04-20T03:11:29.489Z,99.77
2019-04-20T03:13:58.117Z,99.98
2019-04-20T03:16:24.280Z,100.00
2019-04-20T03:18:55.710Z,100.00
2019-04-20T03:21:34.605Z,100.00
2019-04-20T03:24:06.800Z,100.00
2019-04-20T03:26:33.012Z,100.00
2019-04-20T03:29:13.074Z,100.00
2019-04-20T03:36:59.378Z,100.00
2019-04-20T03:39:22.180Z,100.00
2019-04-20T03:41:42.005Z,100.00
2019-04-20T03:44:12.679Z,100.00
2019-04-20T03:46:45.591Z,100.00
2019-04-20T03:49:28.987Z,100.00
2019-04-20T03:52:02.608Z,100.00
2019-04-20T03:54:30.864Z,100.00
2019-04-20T03:57:19.659Z,100.00
2019-04-20T03:59:41.274Z,100.00
2019-04-20T04:05:06.162Z,100.00
2019-04-20T04:07:29.591Z,100.00
2019-04-20T04:10:04.701Z,100.00
2019-04-20T04:12:56.821Z,100.00
2019-04-20T04:15:25.626Z,100.00
2019-04-20T04:17:58.804Z,100.00
2019-04-20T04:20:33.259Z,99.72
2019-04-20T04:23:10.316Z,97.30
2019-04-20T04:25:39.735Z,96.96
2019-04-20T04:28:12.492Z,95.52
2019-04-20T04:30:43.063Z,94.93
2019-04-20T04:33:41.088Z,93.51
2019-04-20T04:35:44.320Z,92.45
2019-04-20T04:38:19.454Z,93.12
2019-04-20T04:41:00.738Z,93.93
2019-04-20T04:43:21.157Z,94.16
2019-04-20T04:45:36.550Z,94.15
2019-04-20T04:48:06.786Z,94.38
2019-04-20T04:50:44.637Z,93.48
2019-04-20T04:53:13.424Z,92.44
2019-04-20T04:55:45.766Z,91.69
2019-04-20T04:58:06.858Z,91.33
2019-04-20T05:00:36.438Z,91.68
2019-04-20T05:03:24.282Z,92.45
2019-04-20T05:06:03.611Z,90.56
2019-04-20T05:08:18.796Z,90.08
2019-04-20T05:10:41.597Z,89.64
2019-04-20T05:13:11.306Z,90.25
2019-04-20T05:15:53.920Z,90.52
2019-04-20T05:18:36.074Z,90.61
2019-04-20T05:21:06.125Z,90.92
2019-04-20T05:23:30.647Z,90.46
2019-04-20T05:26:10.067Z,89.29
2019-04-20T05:28:33.677Z,88.65
2019-04-20T05:30:59.314Z,88.65
2019-04-20T05:33:34.372Z,87.30
2019-04-20T05:36:14.727Z,86.97
2019-04-20T05:38:46.977Z,86.30
2019-04-20T05:41:11.729Z,87.60
2019-04-20T05:43:41.212Z,85.19
2019-04-20T05:46:22.054Z,81.98
2019-04-20T05:48:53.246Z,83.22
2019-04-20T05:51:25.409Z,82.57
2019-04-20T05:53:53.273Z,82.11
2019-04-20T05:56:29.216Z,82.40
2019-04-20T05:58:50.702Z,81.26
2019-04-20T06:01:25.897Z,81.13
2019-04-20T06:03:53.013Z,78.15
2019-04-20T06:06:27.353Z,75.81
2019-04-20T06:09:02.389Z,69.46
2019-04-20T06:11:28.284Z,67.52
2019-04-20T06:13:50.583Z,67.80
2019-04-20T06:16:42.635Z,64.48
2019-04-20T06:19:14.273Z,66.47
2019-04-20T06:21:51.177Z,64.31
2019-04-20T06:24:26.504Z,65.53
2019-04-20T06:29:25.254Z,66.56
2019-04-20T06:31:57.846Z,66.26
2019-04-20T06:34:33.442Z,66.70
2019-04-20T06:37:09.510Z,66.39
2019-04-20T06:42:10.865Z,66.39
2019-04-20T06:44:32.202Z,66.54
2019-04-20T06:47:09.177Z,62.14
2019-04-20T06:49:35.316Z,61.63
2019-04-20T06:52:20.350Z,63.41
2019-04-20T06:54:57.728Z,61.65
2019-04-20T06:57:34.625Z,56.47
2019-04-20T07:00:05.814Z,58.01
2019-04-20T07:02:35.748Z,57.46
2019-04-20T07:05:06.986Z,60.13
2019-04-20T07:07:29.797Z,55.88
2019-04-20T07:12:32.959Z,57.59
2019-04-20T07:14:55.429Z,55.65
2019-04-20T07:20:26.122Z,55.66
2019-04-20T07:25:37.557Z,52.35
2019-04-20T07:28:09.669Z,51.15
2019-04-20T07:30:34.715Z,53.32
2019-04-20T07:33:04.153Z,56.01
2019-04-20T07:35:38.167Z,56.54
2019-04-20T07:40:35.629Z,55.92
2019-04-20T07:43:04.421Z,55.01
2019-04-20T07:45:33.151Z,58.51
2019-04-20T07:48:13.684Z,54.86
2019-04-20T07:50:31.838Z,54.98
2019-04-20T07:53:07.626Z,54.34
2019-04-20T07:55:50.816Z,55.99
2019-04-20T07:58:01.420Z,53.67
2019-04-20T08:00:48.460Z,54.37
2019-04-20T08:03:29.593Z,54.97
2019-04-20T08:05:46.773Z,54.98
2019-04-20T08:08:22.668Z,52.43
2019-04-20T08:10:53.853Z,50.86
2019-04-20T08:13:39.950Z,49.92
2019-04-20T08:16:06.765Z,48.99
2019-04-20T08:18:32.316Z,50.31
2019-04-20T08:21:17.928Z,47.00
2019-04-20T08:23:31.729Z,48.02
2019-04-20T08:25:49.726Z,47.29
2019-04-20T08:28:31.429Z,50.48
2019-04-20T08:31:08.863Z,52.79
2019-04-20T08:33:54.890Z,51.43
2019-04-20T08:36:16.718Z,49.25
2019-04-20T08:41:12.941Z,50.94
2019-04-20T08:43:57.187Z,54.12
2019-04-20T08:46:23.402Z,53.15
2019-04-20T08:48:50.977Z,53.26
2019-04-20T08:51:22.566Z,49.99
2019-04-20T08:53:51.731Z,52.49
2019-04-20T08:56:14.603Z,50.03
2019-04-20T08:58:33.841Z,48.75
2019-04-20T09:01:05.425Z,48.33
2019-04-20T09:03:53.108Z,48.98
2019-04-20T09:06:21.601Z,49.54
2019-04-20T09:08:46.527Z,50.26
2019-04-20T09:11:19.742Z,50.82
2019-04-20T09:13:43.120Z,49.66
2019-04-20T09:16:08.627Z,50.04
2019-04-20T09:18:49.375Z,52.10
2019-04-20T09:21:24.358Z,54.47
2019-04-20T09:24:18.352Z,53.32
2019-04-20T09:26:43.249Z,50.44
2019-04-20T09:29:03.131Z,52.19
2019-04-20T09:31:39.315Z,50.48
2019-04-20T09:34:15.422Z,50.33
2019-04-20T09:36:42.337Z,51.18
2019-04-20T09:39:17.715Z,52.54
2019-04-20T09:42:04.289Z,55.60
2019-04-20T09:44:20.007Z,55.26
2019-04-20T09:46:53.231Z,53.68
2019-04-20T09:49:32.825Z,52.87
2019-04-20T09:52:07.842Z,55.73
2019-04-20T09:54:40.407Z,58.35
2019-04-20T09:57:10.469Z,62.91
2019-04-20T09:59:37.170Z,65.74
2019-04-20T10:02:01.933Z,67.32
2019-04-20T10:04:23.810Z,62.99
2019-04-20T10:06:52.709Z,57.79
2019-04-20T10:09:27.942Z,57.95
2019-04-20T10:11:53.116Z,59.54
2019-04-20T10:14:22.627Z,58.51
2019-04-20T10:16:51.835Z,60.00
2019-04-20T10:19:26.555Z,59.66
2019-04-20T10:21:51.580Z,56.66
2019-04-20T10:24:21.573Z,52.52
2019-04-20T10:26:50.540Z,46.47
2019-04-20T10:29:19.618Z,47.96
2019-04-20T10:31:54.598Z,46.64
2019-04-20T10:34:22.077Z,41.37
2019-04-20T10:36:51.470Z,41.82
2019-04-20T10:39:22.495Z,42.64
2019-04-20T10:41:56.269Z,38.58
2019-04-20T10:44:23.064Z,40.90
2019-04-20T10:46:53.264Z,42.62
2019-04-20T10:49:22.799Z,40.71
2019-04-20T10:51:51.799Z,39.62
2019-04-20T10:54:20.536Z,40.15
2019-04-20T10:56:49.799Z,41.68
2019-04-20T10:59:19.376Z,40.06
2019-04-20T11:01:49.652Z,42.46
2019-04-20T11:04:18.793Z,41.38
2019-04-20T11:06:47.562Z,40.14
2019-04-20T11:09:16.547Z,42.21
2019-04-20T11:11:46.094Z,39.24
2019-04-20T11:14:22.805Z,38.84
2019-04-20T11:16:46.687Z,39.47
2019-04-20T11:19:15.765Z,44.49
2019-04-20T11:21:46.206Z,37.35
2019-04-20T11:24:16.273Z,33.30
2019-04-20T11:26:46.812Z,35.74
2019-04-20T11:29:16.139Z,35.98
2019-04-20T11:31:49.248Z,39.79
2019-04-20T11:34:24.889Z,37.52
2019-04-20T11:36:45.929Z,36.31
2019-04-20T11:39:14.857Z,37.32
2019-04-20T11:41:43.736Z,41.56
2019-04-20T11:44:13.751Z,38.76
2019-04-20T11:46:42.916Z,38.56
2019-04-20T11:49:13.159Z,39.13
2019-04-20T11:51:43.443Z,40.66
2019-04-20T11:54:12.543Z,39.66
2019-04-20T11:56:45.778Z,39.92
2019-04-20T11:59:12.910Z,47.83
2019-04-20T12:01:51.945Z,48.14
2019-04-20T12:04:30.445Z,48.14
2019-04-20T12:06:49.234Z,48.68
2019-04-20T12:09:19.053Z,52.21
2019-04-20T12:12:03.630Z,54.16
2019-04-20T12:14:18.803Z,55.71
2019-04-20T12:16:47.890Z,56.11
2019-04-20T12:19:16.584Z,55.50
2019-04-20T12:21:45.687Z,50.81
2019-04-20T12:24:14.613Z,52.94
2019-04-20T12:26:44.565Z,52.99
2019-04-20T12:29:14.057Z,51.12
2019-04-20T12:31:51.232Z,50.63
2019-04-20T12:34:16.022Z,48.95
2019-04-20T12:36:44.929Z,49.39
2019-04-20T12:39:15.087Z,50.47
2019-04-20T12:41:50.550Z,46.63
2019-04-20T12:44:14.384Z,50.01
2019-04-20T12:46:44.038Z,47.42
2019-04-20T12:49:13.681Z,45.20
2019-04-20T12:51:50.573Z,45.04
2019-04-20T12:54:14.522Z,42.15
2019-04-20T12:56:44.553Z,46.03
2019-04-20T12:59:13.796Z,41.87
2019-04-20T13:01:43.762Z,41.62
2019-04-20T13:04:12.650Z,40.94
2019-04-20T13:06:42.802Z,39.86
2019-04-20T13:09:12.712Z,38.86
2019-04-20T13:11:54.639Z,41.87
2019-04-20T13:14:30.622Z,43.33
2019-04-20T13:16:59.582Z,42.97
2019-04-20T13:19:29.067Z,42.72
2019-04-20T13:21:58.986Z,44.02
2019-04-20T13:24:29.158Z,43.62
2019-04-20T13:26:58.691Z,45.05
2019-04-20T13:29:29.006Z,40.54
2019-04-20T13:31:58.516Z,41.06
2019-04-20T13:34:28.468Z,41.73
2019-04-20T13:36:58.186Z,42.60
2019-04-20T13:39:27.041Z,43.35
2019-04-20T13:42:05.689Z,43.14
2019-04-20T13:44:27.229Z,44.31
2019-04-20T13:46:56.779Z,43.83
2019-04-20T13:49:27.051Z,44.60
2019-04-20T13:51:57.087Z,43.43
2019-04-20T13:54:28.028Z,44.30
2019-04-20T13:56:57.960Z,45.98
2019-04-20T13:59:44.968Z,42.67
2019-04-20T14:02:17.142Z,45.01
2019-04-20T14:04:48.698Z,44.86
2019-04-20T14:07:19.059Z,45.38
2019-04-20T14:09:48.702Z,45.77
2019-04-20T14:12:25.241Z,45.86
2019-04-20T14:14:48.947Z,46.12
2019-04-20T14:17:19.094Z,45.70
2019-04-20T14:19:49.401Z,46.05
2019-04-20T14:22:18.754Z,45.16
2019-04-20T14:24:48.963Z,44.75
2019-04-20T14:27:19.041Z,43.81
2019-04-20T14:29:48.708Z,42.79
2019-04-20T14:32:18.812Z,41.79
2019-04-20T14:34:48.943Z,43.59
2019-04-20T14:37:18.715Z,42.27
2019-04-20T14:39:48.044Z,43.64
2019-04-20T14:42:26.910Z,41.22
2019-04-20T14:44:47.935Z,41.72
2019-04-20T14:47:17.915Z,41.05
2019-04-20T14:49:48.483Z,38.45
2019-04-20T14:52:17.713Z,37.60
2019-04-20T14:54:47.690Z,35.39
2019-04-20T14:57:17.284Z,33.98
2019-04-20T14:59:53.960Z,36.16
2019-04-20T15:02:23.206Z,33.49
2019-04-20T15:04:52.774Z,32.87
2019-04-20T15:07:22.581Z,34.25
2019-04-20T15:09:52.866Z,32.17
2019-04-20T15:12:21.767Z,35.07
2019-04-20T15:14:50.547Z,33.91
2019-04-20T15:17:23.945Z,34.47
2019-04-20T15:19:54.556Z,34.87
2019-04-20T15:22:29.579Z,36.09
2019-04-20T15:24:59.834Z,36.84
2019-04-20T15:27:30.358Z,38.57
2019-04-20T15:30:00.291Z,37.52
2019-04-20T15:32:29.307Z,38.43
2019-04-20T15:34:58.240Z,37.41
2019-04-20T15:37:26.971Z,38.67
2019-04-20T15:39:57.023Z,37.33
2019-04-20T15:42:27.641Z,37.81
2019-04-20T15:44:57.689Z,39.86
2019-04-20T15:47:27.909Z,38.46
2019-04-20T15:49:58.052Z,38.76
2019-04-20T15:52:31.854Z,39.36
2019-04-20T15:55:03.062Z,39.34
2019-04-20T15:57:29.693Z,36.41
2019-04-20T15:59:58.531Z,35.76
2019-04-20T16:02:33.617Z,34.68
2019-04-20T16:05:04.149Z,36.24
2019-04-20T16:07:40.718Z,36.71
2019-04-20T16:10:05.498Z,38.82
2019-04-20T16:12:35.156Z,37.64
2019-04-20T16:15:05.245Z,38.86
2019-04-20T16:17:39.015Z,39.70
2019-04-20T16:20:09.057Z,42.35
2019-04-20T16:22:36.611Z,43.93
2019-04-20T16:25:23.810Z,44.32
2019-04-20T16:27:53.852Z,45.05
2019-04-20T16:30:23.380Z,45.64
2019-04-20T16:32:52.569Z,46.45
2019-04-20T16:35:22.453Z,48.19
2019-04-20T16:37:52.647Z,48.84
2019-04-20T16:40:21.561Z,49.82
2019-04-20T16:42:50.372Z,50.59
2019-04-20T16:45:19.218Z,50.22
2019-04-20T16:47:48.275Z,50.63
2019-04-20T16:50:17.280Z,50.88
2019-04-20T16:52:46.568Z,50.87
2019-04-20T16:55:16.609Z,50.56
2019-04-20T16:57:47.938Z,50.74
2019-04-20T17:00:17.903Z,51.23
2019-04-20T17:02:47.975Z,52.07
2019-04-20T17:05:16.994Z,52.62
2019-04-20T17:07:57.387Z,53.11
2019-04-20T17:10:26.553Z,53.29
2019-04-20T17:12:55.701Z,53.60
2019-04-20T17:15:25.535Z,54.34
2019-04-20T17:17:56.725Z,54.78
2019-04-20T17:20:25.715Z,55.10
2019-04-20T17:22:56.237Z,55.53
2019-04-20T17:25:25.901Z,57.50
2019-04-20T17:27:59.561Z,57.22
2019-04-20T17:30:39.985Z,57.57
2019-04-20T17:33:22.789Z,58.82
2019-04-20T17:35:59.371Z,58.85
2019-04-20T17:38:20.672Z,58.61
2019-04-20T17:41:03.106Z,59.23
2019-04-20T17:43:29.392Z,59.64
2019-04-20T17:45:59.625Z,59.43
2019-04-20T17:48:35.021Z,59.38
2019-04-20T17:51:11.069Z,60.92
2019-04-20T17:53:44.621Z,61.94
2019-04-20T17:56:07.484Z,61.58
2019-04-20T17:58:39.516Z,61.92
2019-04-20T18:01:35.836Z,62.27
2019-04-20T18:04:31.094Z,63.46
2019-04-20T18:06:43.694Z,63.18
2019-04-20T18:09:10.893Z,63.93
2019-04-20T18:11:38.593Z,65.44
2019-04-20T18:14:11.063Z,66.29
2019-04-20T18:16:52.374Z,68.16
2019-04-20T18:19:13.281Z,68.35
2019-04-20T18:21:43.421Z,68.67
2019-04-20T18:24:24.165Z,69.15
2019-04-20T18:27:03.039Z,69.63
2019-04-20T18:29:32.840Z,69.81
2019-04-20T18:32:01.910Z,68.62
2019-04-20T18:34:46.795Z,69.63
2019-04-20T18:37:17.245Z,72.00
2019-04-20T18:39:54.778Z,72.84
2019-04-20T18:42:24.985Z,74.11
2019-04-20T18:45:08.948Z,73.90
2019-04-20T18:47:42.162Z,74.21
2019-04-20T18:49:57.123Z,72.01
2019-04-20T18:52:19.778Z,72.33
2019-04-20T18:54:53.346Z,71.84
2019-04-20T18:57:24.871Z,72.58
2019-04-20T18:59:54.484Z,72.56
2019-04-20T19:02:26.816Z,73.04
2019-04-20T19:04:50.745Z,74.09
2019-04-20T19:07:19.825Z,76.08
2019-04-20T19:09:53.268Z,74.24
2019-04-20T19:12:21.685Z,76.81
2019-04-20T19:15:12.103Z,76.86
2019-04-20T19:17:51.029Z,77.51
2019-04-20T19:20:14.089Z,77.60
2019-04-20T19:22:44.026Z,77.68
2019-04-20T19:25:19.827Z,77.92
2019-04-20T19:27:49.374Z,78.13
2019-04-20T19:30:24.929Z,78.43
2019-04-20T19:33:03.909Z,78.64
2019-04-20T19:35:30.852Z,80.24
2019-04-20T19:37:57.379Z,81.92
2019-04-20T19:40:31.282Z,80.25
2019-04-20T19:43:01.272Z,80.86
2019-04-20T19:45:43.875Z,79.21
2019-04-20T19:48:04.376Z,79.28
2019-04-20T19:50:45.659Z,78.21
2019-04-20T19:53:18.366Z,77.40
2019-04-20T19:55:40.158Z,75.02
2019-04-20T19:58:10.662Z,73.03
2019-04-20T20:00:40.946Z,72.55
2019-04-20T20:03:11.882Z,72.46
2019-04-20T20:05:45.198Z,73.01
2019-04-20T20:08:15.041Z,73.27
2019-04-20T20:10:44.151Z,74.44
2019-04-20T20:13:13.197Z,72.79
2019-04-20T20:15:43.670Z,72.12
2019-04-20T20:18:30.032Z,72.50
2019-04-20T20:20:59.605Z,72.40
2019-04-20T20:23:14.287Z,73.65
2019-04-20T20:25:47.638Z,74.33
2019-04-20T20:28:29.944Z,75.05
2019-04-20T20:30:57.013Z,73.74
2019-04-20T20:33:36.353Z,72.39
2019-04-20T20:35:53.957Z,72.23
2019-04-20T20:38:25.574Z,73.29
2019-04-20T20:40:58.928Z,74.80
2019-04-20T20:43:31.777Z,75.75
2019-04-20T20:46:01.262Z,77.36
2019-04-20T20:48:35.898Z,77.53
2019-04-20T20:51:05.202Z,78.13
2019-04-20T20:53:38.004Z,78.26
2019-04-20T20:56:03.959Z,78.50
2019-04-20T20:58:36.166Z,79.15
2019-04-20T21:00:57.575Z,78.36
2019-04-20T21:03:30.604Z,78.74
2019-04-20T21:05:53.643Z,77.88
2019-04-20T21:08:23.818Z,77.33
2019-04-20T21:10:54.734Z,77.26
2019-04-20T21:13:25.935Z,77.72
2019-04-20T21:16:02.603Z,77.04
2019-04-20T21:18:44.914Z,78.43
2019-04-20T21:21:11.144Z,78.74
2019-04-20T21:23:36.817Z,79.47
2019-04-20T21:26:12.854Z,80.33
2019-04-20T21:28:41.723Z,80.97
2019-04-20T21:31:14.618Z,81.35
2019-04-20T21:33:42.831Z,82.32
2019-04-20T21:36:13.484Z,83.83
2019-04-20T21:38:43.330Z,84.26
2019-04-20T21:41:16.519Z,83.68
2019-04-20T21:43:44.536Z,83.35
2019-04-20T21:46:14.206Z,83.76
2019-04-20T21:48:56.018Z,84.50
2019-04-20T21:51:29.312Z,83.04
2019-04-20T21:53:44.396Z,82.75
2019-04-20T21:56:13.469Z,83.39
2019-04-20T21:58:49.442Z,82.27
2019-04-20T22:01:24.251Z,82.14
2019-04-20T22:03:45.164Z,84.01
2019-04-20T22:06:14.160Z,85.91
2019-04-20T22:08:45.934Z,87.74
2019-04-20T22:11:13.631Z,88.96
2019-04-20T22:13:44.601Z,90.30
2019-04-20T22:16:14.757Z,92.09
2019-04-20T22:18:54.013Z,92.62
2019-04-20T22:21:22.601Z,93.13
2019-04-20T22:24:00.602Z,93.52
2019-04-20T22:26:25.384Z,93.45
2019-04-20T22:28:47.824Z,93.54
2019-04-20T22:31:18.199Z,93.34
2019-04-20T22:33:48.701Z,92.30
2019-04-20T22:36:18.204Z,91.39
2019-04-20T22:39:07.499Z,89.79
2019-04-20T22:41:40.561Z,89.39
2019-04-20T22:44:15.141Z,90.19
2019-04-20T22:46:42.192Z,90.96
2019-04-20T22:49:30.302Z,91.04
2019-04-20T22:51:51.997Z,91.69
2019-04-20T22:54:27.596Z,92.11
2019-04-20T22:56:55.047Z,92.53
2019-04-20T22:59:18.478Z,92.75
2019-04-20T23:01:48.560Z,92.80
2019-04-20T23:04:14.885Z,92.81
2019-04-20T23:06:48.108Z,92.45
2019-04-20T23:09:15.121Z,91.88
2019-04-20T23:11:45.211Z,91.55
2019-04-20T23:14:14.340Z,91.69
2019-04-20T23:16:48.463Z,91.28
2019-04-20T23:19:28.140Z,90.71
2019-04-20T23:21:48.550Z,90.91
2019-04-20T23:24:17.114Z,91.01
2019-04-20T23:26:47.619Z,90.88
2019-04-20T23:29:17.500Z,90.93
2019-04-20T23:31:55.307Z,91.28
2019-04-20T23:34:22.435Z,91.43
2019-04-20T23:36:50.513Z,91.37
2019-04-20T23:39:19.046Z,90.60
2019-04-20T23:41:53.733Z,90.19
2019-04-20T23:44:21.023Z,88.90
2019-04-20T23:47:01.159Z,87.29
2019-04-20T23:49:42.857Z,86.41
2019-04-20T23:52:26.399Z,85.81
2019-04-20T23:54:34.071Z,85.31
2019-04-20T23:57:08.102Z,85.64
2019-04-20T23:59:41.099Z,85.11
